Whiteville, Arkansas
Current Conditions -  °F | °C
As of 3:53 AM on Friday 19 Dec 2014 (Local Time) from KBPK Reporting Station
Haze Haze  
Wind Chill: 37°   Ceiling: 400
Heat Index: 37°   Visibility: 5mi
Dew Point: 36°   Wind: 3mph
Humidity: 96%   Direction: 60°ENE
Pressure: 30.17"   Gusts: NA
Location:  36.3299°N, 92.4805°W
Report Text: KBPK 190953Z AUTO 06003KT 5SM BR OVC004 03/02 A3017 RMK AO2 SLP222 T00280022
Loading
Personal Weather Stations






























Interactive Weather Map New forecast layout! Learn more

10-Day Weather Forecast

Advertisements
Track Severe Weather on mobile